Aviation Digital Data Service (ADDS)

Output produced by METARs form (1707 UTC 21 September 2019)
found at http://aviationweather.gov/metar/data/
 
KASD 211653Z AUTO 07007KT 10SM FEW025 SCT060 BKN080 28/24 A3016 RMK AO2 RAB03E14B24E41 SLP213 P0009 T02780244
KASD 211634Z AUTO 10005KT 3SM -RA FEW028 BKN045 OVC075 26/23 A3016 RMK AO2 RAB03E14B24 P0009 T02610233
KASD 211626Z AUTO 10006G23KT 1 3/4SM +RA SCT026 BKN033 OVC080 27/22 A3016 RMK AO2 RAB03E14B24 P0008 T02670222
KASD 211616Z AUTO 08004KT 10SM FEW024 BKN031 OVC080 29/23 A3016 RMK AO2 RAB03E14 P0000 T02940228
KASD 211120Z 2112/2212 VRB03KT P6SM FEW035 FEW060 
     FM211800 10007KT P6SM SCT035 BKN070 
     FM212300 13005KT P6SM FEW030 SCT070 
     FM220500 00000KT P6SM SKC